Terminal Aerodrome Forecast
Issued by NWS

Home | Current Version | Previous Version | Text Only | Print | Product List | Glossary On
Versions: 1 2 3 4 5 6 7 8 9 10 11 12 13 14 15
000
FTUS46 KOTX 291739
TAFMWH
TAF
KMWH 291739Z 2918/3018 09007KT P6SM VCSH SCT020 OVC050
     FM292000 13009KT P6SM VCSH BKN040 OVC070
     FM300200 14005KT P6SM BKN100
     FM300600 32006KT P6SM SCT100=

USA.gov is the U.S. government's official web portal to all federal, state and local government web resources and services.